createdAt,value
2019-04-16T00:02:11.824Z,13.53
2019-04-16T00:04:53.722Z,12.85
2019-04-16T00:07:35.259Z,16.12
2019-04-16T00:10:09.324Z,17.52
2019-04-16T00:12:56.490Z,16.10
2019-04-16T00:15:27.329Z,12.85
2019-04-16T00:17:57.603Z,14.05
2019-04-16T00:20:27.908Z,15.28
2019-04-16T00:23:02.377Z,13.65
2019-04-16T00:25:32.671Z,16.35
2019-04-16T00:28:03.262Z,11.80
2019-04-16T00:30:35.664Z,14.03
2019-04-16T00:33:07.590Z,12.73
2019-04-16T00:35:38.189Z,12.00
2019-04-16T00:38:08.489Z,15.93
2019-04-16T00:40:38.770Z,13.30
2019-04-16T00:43:09.076Z,13.30
2019-04-16T00:45:39.358Z,12.78
2019-04-16T00:48:09.919Z,15.00
2019-04-16T00:50:40.199Z,15.27
2019-04-16T00:53:10.874Z,14.63
2019-04-16T00:55:42.283Z,12.65
2019-04-16T00:58:13.473Z,12.07
2019-04-16T01:00:43.752Z,13.18
2019-04-16T01:03:14.038Z,14.28
2019-04-16T01:05:44.645Z,14.23
2019-04-16T01:08:14.922Z,13.80
2019-04-16T01:10:45.947Z,14.03
2019-04-16T01:13:16.227Z,13.35
2019-04-16T01:15:46.585Z,13.98
2019-04-16T01:18:16.874Z,14.33
2019-04-16T01:20:47.155Z,13.05
2019-04-16T01:23:18.392Z,13.20
2019-04-16T01:25:48.713Z,11.08
2019-04-16T01:28:23.927Z,16.23
2019-04-16T01:31:08.148Z,12.53
2019-04-16T01:33:38.511Z,17.57
2019-04-16T01:36:26.600Z,12.98
2019-04-16T01:39:14.735Z,11.45
2019-04-16T01:41:30.868Z,12.40
2019-04-16T01:44:01.151Z,13.15
2019-04-16T01:46:32.890Z,14.18
2019-04-16T01:49:03.450Z,11.45
2019-04-16T01:51:33.744Z,13.53
2019-04-16T01:54:04.033Z,11.67
2019-04-16T01:56:34.558Z,12.93
2019-04-16T01:59:06.125Z,12.73
2019-04-16T02:01:36.842Z,12.98
2019-04-16T02:04:07.237Z,14.45
2019-04-16T02:06:37.476Z,12.65
2019-04-16T02:09:16.057Z,13.83
2019-04-16T02:11:41.482Z,12.07
2019-04-16T02:14:14.512Z,12.90
2019-04-16T02:16:44.501Z,10.63
2019-04-16T02:19:15.558Z,14.12
2019-04-16T02:21:45.842Z,12.90
2019-04-16T02:24:18.697Z,12.07
2019-04-16T02:26:48.220Z,14.58
2019-04-16T02:29:18.488Z,14.78
2019-04-16T02:31:51.510Z,10.50
2019-04-16T02:34:20.826Z,13.20
2019-04-16T02:36:51.421Z,13.37
2019-04-16T02:39:25.746Z,15.43
2019-04-16T02:41:58.275Z,11.85
2019-04-16T02:44:26.189Z,12.93
2019-04-16T02:46:56.454Z,12.65
2019-04-16T02:49:26.736Z,14.03
2019-04-16T02:52:01.470Z,12.80
2019-04-16T02:54:39.000Z,13.25
2019-04-16T02:57:26.686Z,14.15
2019-04-16T02:59:55.912Z,11.60
2019-04-16T03:02:44.124Z,14.45
2019-04-16T03:05:16.037Z,12.93
2019-04-16T03:07:46.315Z,11.83
2019-04-16T03:10:16.580Z,15.10
2019-04-16T03:12:51.868Z,12.50
2019-04-16T03:15:20.774Z,13.72
2019-04-16T03:17:51.049Z,14.13
2019-04-16T03:20:24.013Z,13.28
2019-04-16T03:22:53.284Z,12.33
2019-04-16T03:25:23.552Z,15.05
2019-04-16T03:27:54.486Z,15.13
2019-04-16T03:30:25.266Z,12.20
2019-04-16T03:32:55.559Z,12.80
2019-04-16T03:35:26.841Z,16.02
2019-04-16T03:37:57.475Z,15.63
2019-04-16T03:40:27.734Z,12.80
2019-04-16T03:42:59.272Z,12.63
2019-04-16T03:45:30.401Z,13.85
2019-04-16T03:48:00.671Z,11.38
2019-04-16T03:50:32.122Z,11.95
2019-04-16T03:53:02.427Z,13.32
2019-04-16T03:55:32.709Z,10.98
2019-04-16T03:58:06.267Z,11.68
2019-04-16T04:00:35.207Z,15.05
2019-04-16T04:03:05.471Z,16.75
2019-04-16T04:05:36.060Z,12.63
2019-04-16T04:08:06.328Z,12.73
2019-04-16T04:10:37.771Z,10.95
2019-04-16T04:13:08.254Z,13.62
2019-04-16T04:15:38.541Z,11.03
2019-04-16T04:18:11.645Z,14.78
2019-04-16T04:20:41.081Z,12.77
2019-04-16T04:23:11.429Z,12.03
2019-04-16T04:25:42.064Z,12.50
2019-04-16T04:28:12.331Z,10.53
2019-04-16T04:30:42.997Z,10.85
2019-04-16T04:33:15.120Z,12.45
2019-04-16T04:35:45.319Z,12.13
2019-04-16T04:38:16.175Z,12.60
2019-04-16T04:40:50.291Z,12.53
2019-04-16T04:43:18.407Z,12.93
2019-04-16T04:45:48.674Z,13.60
2019-04-16T04:48:23.003Z,12.75
2019-04-16T04:50:51.288Z,11.57
2019-04-16T04:53:21.553Z,12.45
2019-04-16T04:55:54.464Z,12.63
2019-04-16T04:58:24.144Z,11.88
2019-04-16T05:00:54.421Z,13.62
2019-04-16T05:03:32.063Z,13.25
2019-04-16T05:06:07.160Z,12.80
2019-04-16T05:08:37.727Z,11.68
2019-04-16T05:11:08.000Z,13.43
2019-04-16T05:13:38.275Z,13.68
2019-04-16T05:16:08.553Z,15.17
2019-04-16T05:18:41.898Z,11.95
2019-04-16T05:21:10.787Z,13.87
2019-04-16T05:23:41.085Z,13.48
2019-04-16T05:26:11.635Z,14.27
2019-04-16T05:28:45.424Z,13.60
2019-04-16T05:31:13.883Z,13.75
2019-04-16T05:33:44.179Z,13.38
2019-04-16T05:36:15.431Z,15.68
2019-04-16T05:38:45.925Z,14.87
2019-04-16T05:41:20.378Z,17.16
2019-04-16T05:43:48.180Z,12.90
2019-04-16T05:46:18.449Z,11.15
2019-04-16T05:48:51.382Z,12.50
2019-04-16T05:51:20.934Z,13.65
2019-04-16T05:53:52.846Z,15.43
2019-04-16T05:56:24.956Z,11.90
2019-04-16T05:58:55.519Z,14.70
2019-04-16T06:01:33.222Z,14.68
2019-04-16T06:04:03.812Z,11.50
2019-04-16T06:06:34.106Z,12.37
2019-04-16T06:09:11.882Z,11.27
2019-04-16T06:11:39.516Z,12.40
2019-04-16T06:14:30.463Z,13.05
2019-04-16T06:17:05.092Z,10.78
2019-04-16T06:19:46.783Z,12.15
2019-04-16T06:22:37.462Z,12.43
2019-04-16T06:25:25.381Z,11.60
2019-04-16T06:28:09.478Z,12.85
2019-04-16T06:30:43.992Z,15.00
2019-04-16T06:33:19.001Z,13.08
2019-04-16T06:35:54.006Z,14.57
2019-04-16T06:38:26.134Z,11.12
2019-04-16T06:41:03.087Z,12.13
2019-04-16T06:43:48.151Z,15.30
2019-04-16T06:46:20.065Z,15.88
2019-04-16T06:48:52.010Z,17.00
2019-04-16T06:51:43.819Z,11.48
2019-04-16T06:54:25.398Z,12.35
2019-04-16T06:57:02.639Z,14.20
2019-04-16T06:59:34.554Z,13.05
2019-04-16T07:02:15.763Z,12.40
2019-04-16T07:04:47.687Z,12.50
2019-04-16T07:07:40.156Z,12.80
2019-04-16T07:10:14.607Z,14.50
2019-04-16T07:12:49.423Z,15.78
2019-04-16T07:15:24.392Z,14.10
2019-04-16T07:17:51.846Z,11.88
2019-04-16T07:20:22.373Z,12.78
2019-04-16T07:22:53.555Z,14.35
2019-04-16T07:25:27.422Z,14.43
2019-04-16T07:27:58.599Z,11.68
2019-04-16T07:30:38.661Z,14.70
2019-04-16T07:33:07.190Z,13.08
2019-04-16T07:35:48.236Z,12.53
2019-04-16T07:38:23.058Z,13.43
2019-04-16T07:41:00.886Z,12.90
2019-04-16T07:43:38.558Z,14.33
2019-04-16T07:46:28.767Z,11.30
2019-04-16T07:49:00.705Z,14.00
2019-04-16T07:51:35.789Z,13.28
2019-04-16T07:54:09.339Z,13.48
2019-04-16T07:56:41.928Z,13.13
2019-04-16T07:59:12.434Z,13.48
2019-04-16T08:01:44.008Z,12.97
2019-04-16T08:04:23.207Z,16.65
2019-04-16T08:06:47.406Z,14.55
2019-04-16T08:09:17.715Z,13.90
2019-04-16T08:11:48.049Z,16.10
2019-04-16T08:14:18.896Z,17.30
2019-04-16T08:16:49.203Z,19.65
2019-04-16T08:19:19.488Z,15.75
2019-04-16T08:21:49.813Z,13.30
2019-04-16T08:24:27.450Z,16.27
2019-04-16T08:26:57.949Z,14.38
2019-04-16T08:29:28.231Z,16.93
2019-04-16T08:31:58.544Z,13.70
2019-04-16T08:34:28.852Z,15.55
2019-04-16T08:36:59.140Z,15.20
2019-04-16T08:39:29.423Z,15.00
2019-04-16T08:41:59.976Z,13.93
2019-04-16T08:44:35.317Z,14.05
2019-04-16T08:47:02.513Z,16.67
2019-04-16T08:49:32.795Z,14.13
2019-04-16T08:52:03.093Z,15.23
2019-04-16T08:54:33.382Z,20.72
2019-04-16T08:57:03.990Z,14.83
2019-04-16T08:59:35.403Z,15.10
2019-04-16T09:02:05.706Z,13.70
2019-04-16T09:04:36.003Z,14.97
2019-04-16T09:07:11.968Z,14.83
2019-04-16T09:09:40.212Z,14.73
2019-04-16T09:12:10.505Z,17.10
2019-04-16T09:14:42.708Z,18.40
2019-04-16T09:17:14.651Z,17.17
2019-04-16T09:19:46.575Z,16.12
2019-04-16T09:22:17.204Z,17.60
2019-04-16T09:24:52.399Z,17.05
2019-04-16T09:27:28.546Z,17.82
2019-04-16T09:30:09.870Z,17.03
2019-04-16T09:32:40.682Z,14.60
2019-04-16T09:35:24.624Z,16.30
2019-04-16T09:37:56.789Z,14.55
2019-04-16T09:40:31.401Z,16.12
2019-04-16T09:43:16.146Z,14.18
2019-04-16T09:45:37.188Z,16.80
2019-04-16T09:48:07.615Z,15.98
2019-04-16T09:50:43.100Z,15.00
2019-04-16T09:53:09.881Z,18.27
2019-04-16T09:55:40.170Z,18.37
2019-04-16T09:58:12.106Z,20.75
2019-04-16T10:00:47.005Z,19.40
2019-04-16T10:05:47.396Z,18.35
2019-04-16T10:08:17.687Z,16.32
2019-04-16T10:10:48.015Z,15.30
2019-04-16T10:13:29.996Z,16.52
2019-04-16T10:15:50.315Z,17.73
2019-04-16T10:18:20.826Z,19.20
2019-04-16T10:20:51.081Z,17.73
2019-04-16T10:23:32.243Z,20.35
2019-04-16T10:26:02.892Z,15.17
2019-04-16T10:28:43.868Z,14.37
2019-04-16T10:31:15.780Z,16.90
2019-04-16T10:33:46.082Z,15.95
2019-04-16T10:36:16.345Z,15.37
2019-04-16T10:39:04.639Z,16.07
2019-04-16T10:41:56.388Z,20.10
2019-04-16T10:44:29.038Z,15.68
2019-04-16T10:47:03.927Z,16.70
2019-04-16T10:49:44.809Z,15.78
2019-04-16T10:52:32.857Z,15.28
2019-04-16T10:55:20.966Z,15.97
2019-04-16T10:57:55.404Z,18.95
2019-04-16T11:00:29.988Z,16.45
2019-04-16T11:03:11.126Z,14.75
2019-04-16T11:05:43.279Z,14.65
2019-04-16T11:08:13.609Z,15.23
2019-04-16T11:10:43.998Z,16.50
2019-04-16T11:13:27.919Z,16.05
2019-04-16T11:15:59.860Z,14.27
2019-04-16T11:18:30.143Z,11.63
2019-04-16T11:21:00.945Z,14.95
2019-04-16T11:23:31.215Z,13.68
2019-04-16T11:26:01.487Z,17.67
2019-04-16T11:28:31.791Z,12.43
2019-04-16T11:31:03.706Z,16.07
2019-04-16T11:33:33.998Z,9.70
2019-04-16T11:36:17.759Z,13.25
2019-04-16T11:38:36.571Z,11.73
2019-04-16T11:41:06.972Z,9.68
2019-04-16T11:43:37.604Z,9.50
2019-04-16T11:46:07.974Z,9.73
2019-04-16T11:48:38.402Z,9.50
2019-04-16T11:51:08.708Z,11.88
2019-04-16T11:53:38.987Z,9.68
2019-04-16T11:56:09.242Z,10.65
2019-04-16T11:58:41.865Z,10.72
2019-04-16T12:01:13.834Z,14.07
2019-04-16T12:04:03.252Z,15.45
2019-04-16T12:09:34.681Z,11.73
2019-04-16T12:12:15.819Z,10.32
2019-04-16T12:15:00.000Z,10.93
2019-04-16T12:17:47.849Z,16.02
2019-04-16T12:20:22.707Z,12.45
2019-04-16T12:23:06.669Z,10.65
2019-04-16T12:25:38.586Z,11.37
2019-04-16T12:28:25.792Z,11.28
2019-04-16T12:31:16.846Z,10.82
2019-04-16T12:33:51.875Z,10.93
2019-04-16T12:36:40.531Z,13.78
2019-04-16T12:39:21.146Z,14.00
2019-04-16T12:42:00.167Z,14.60
2019-04-16T12:44:45.706Z,17.63
2019-04-16T12:47:15.335Z,15.60
2019-04-16T12:49:47.619Z,12.95
2019-04-16T12:52:25.251Z,17.60
2019-04-16T12:54:59.344Z,11.70
2019-04-16T12:57:33.787Z,15.30
2019-04-16T13:00:10.893Z,12.73
2019-04-16T13:02:52.072Z,12.96
2019-04-16T13:05:39.493Z,12.47
2019-04-16T13:08:17.227Z,12.73
2019-04-16T13:11:00.956Z,15.72
2019-04-16T13:13:49.397Z,14.60
2019-04-16T13:16:27.311Z,15.18
2019-04-16T13:19:08.162Z,14.40
2019-04-16T13:21:40.119Z,16.32
2019-04-16T13:24:12.028Z,15.60
2019-04-16T13:26:43.958Z,16.30
2019-04-16T13:29:17.258Z,17.45
2019-04-16T13:31:47.794Z,21.42
2019-04-16T13:34:19.347Z,22.73
2019-04-16T13:36:51.605Z,21.10
2019-04-16T13:39:26.160Z,17.98
2019-04-16T13:41:56.742Z,20.15
2019-04-16T13:44:40.382Z,19.30
2019-04-16T13:47:09.723Z,19.52
2019-04-16T13:49:44.605Z,18.03
2019-04-16T13:52:17.084Z,17.87
2019-04-16T13:54:55.324Z,12.80
2019-04-16T13:57:30.041Z,14.70
2019-04-16T14:00:05.656Z,13.58
2019-04-16T14:02:47.720Z,13.40
2019-04-16T14:05:19.252Z,16.10
2019-04-16T14:07:49.609Z,13.98
2019-04-16T14:10:19.968Z,13.43
2019-04-16T14:12:50.243Z,12.23
2019-04-16T14:15:31.789Z,11.35
2019-04-16T14:17:59.064Z,14.67
2019-04-16T14:20:26.376Z,16.93
2019-04-16T14:22:56.669Z,15.13
2019-04-16T14:25:26.941Z,12.47
2019-04-16T14:28:02.070Z,13.03
2019-04-16T14:30:31.173Z,10.37
2019-04-16T14:33:01.458Z,17.70
2019-04-16T14:35:34.043Z,13.15
2019-04-16T14:38:04.479Z,15.05
2019-04-16T14:40:34.839Z,14.50
2019-04-16T14:43:05.200Z,12.65
2019-04-16T14:45:57.711Z,14.65
2019-04-16T14:48:16.043Z,15.48
2019-04-16T14:50:46.323Z,13.58
2019-04-16T14:53:18.253Z,14.90
2019-04-16T14:55:59.833Z,11.08
2019-04-16T14:58:26.423Z,16.27
2019-04-16T15:04:00.748Z,12.23
2019-04-16T15:06:44.473Z,11.68
2019-04-16T15:09:32.670Z,9.45
2019-04-16T15:12:08.492Z,11.85
2019-04-16T15:14:40.690Z,11.45
2019-04-16T15:17:19.176Z,9.03
2019-04-16T15:19:53.763Z,9.80
2019-04-16T15:22:43.358Z,10.82
2019-04-16T15:25:15.280Z,11.95
2019-04-16T15:27:49.899Z,10.30
2019-04-16T15:30:38.032Z,11.60
2019-04-16T15:33:24.901Z,12.85
2019-04-16T15:36:08.989Z,12.88
2019-04-16T15:38:40.911Z,12.50
2019-04-16T15:41:27.933Z,12.05
2019-04-16T15:44:16.072Z,13.50
2019-04-16T15:46:48.455Z,15.27
2019-04-16T15:49:24.136Z,14.25
2019-04-16T15:51:58.899Z,12.25
2019-04-16T15:54:33.663Z,13.72
2019-04-16T15:57:17.751Z,15.88
2019-04-16T16:00:07.839Z,14.47
2019-04-16T16:02:45.599Z,13.50
2019-04-16T16:05:27.291Z,19.34
2019-04-16T16:08:15.358Z,15.68
2019-04-16T16:10:53.479Z,11.97
2019-04-16T16:13:26.532Z,16.07
2019-04-16T16:15:55.928Z,18.42
2019-04-16T16:18:26.778Z,18.67
2019-04-16T16:20:57.215Z,13.55
2019-04-16T16:23:32.748Z,18.92
2019-04-16T16:25:59.419Z,17.98
2019-04-16T16:28:29.789Z,17.27
2019-04-16T16:31:00.402Z,15.98
2019-04-16T16:33:30.635Z,20.85
2019-04-16T16:36:00.931Z,15.45
2019-04-16T16:38:31.217Z,22.15
2019-04-16T16:41:01.504Z,17.90
2019-04-16T16:43:31.786Z,15.00
2019-04-16T16:46:18.731Z,15.55
2019-04-16T16:48:50.628Z,17.92
2019-04-16T16:51:23.007Z,16.97
2019-04-16T16:54:00.874Z,16.00
2019-04-16T16:56:49.213Z,14.87
2019-04-16T16:59:23.644Z,13.53
2019-04-16T17:02:08.595Z,16.10
2019-04-16T17:04:38.519Z,16.05
2019-04-16T17:07:09.182Z,14.40
2019-04-16T17:09:39.463Z,18.32
2019-04-16T17:12:09.757Z,17.65
2019-04-16T17:14:40.030Z,16.00
2019-04-16T17:17:14.704Z,16.97
2019-04-16T17:19:42.313Z,16.90
2019-04-16T17:22:14.650Z,17.00
2019-04-16T17:24:44.985Z,14.73
2019-04-16T17:27:15.276Z,18.25
2019-04-16T17:29:46.584Z,17.80
2019-04-16T17:32:17.622Z,17.05
2019-04-16T17:34:48.228Z,17.25
2019-04-16T17:37:21.395Z,16.40
2019-04-16T17:39:54.784Z,20.00
2019-04-16T17:42:26.714Z,18.60
2019-04-16T17:45:14.479Z,18.27
2019-04-16T17:48:05.424Z,20.10
2019-04-16T17:50:39.565Z,19.07
2019-04-16T17:53:15.906Z,16.03
2019-04-16T17:55:47.374Z,18.05
2019-04-16T17:58:19.301Z,17.17
2019-04-16T18:00:51.231Z,16.97
2019-04-16T18:03:37.246Z,13.13
2019-04-16T18:06:17.529Z,17.32
2019-04-16T18:08:49.462Z,15.28
2019-04-16T18:11:27.390Z,14.90
2019-04-16T18:14:08.821Z,16.50
2019-04-16T18:16:54.326Z,15.90
2019-04-16T18:19:39.259Z,11.88
2019-04-16T18:22:15.875Z,11.85
2019-04-16T18:24:53.903Z,12.10
2019-04-16T18:27:29.226Z,8.33
2019-04-16T18:30:08.673Z,7.08
2019-04-16T18:32:58.893Z,6.55
2019-04-16T18:35:33.535Z,5.85
2019-04-16T18:38:22.225Z,6.00
2019-04-16T18:41:11.211Z,5.72
2019-04-16T18:43:59.236Z,6.90
2019-04-16T18:46:31.160Z,6.58
2019-04-16T18:49:03.090Z,4.63
2019-04-16T18:51:34.285Z,6.47
2019-04-16T18:54:05.057Z,5.70
2019-04-16T18:56:35.333Z,4.97
2019-04-16T18:59:05.687Z,7.97
2019-04-16T19:01:37.874Z,5.12
2019-04-16T19:04:08.153Z,5.60
2019-04-16T19:06:38.725Z,3.60
2019-04-16T19:09:09.216Z,6.08
2019-04-16T19:11:39.485Z,3.92
2019-04-16T19:14:12.540Z,4.28
2019-04-16T19:16:41.750Z,4.30
2019-04-16T19:19:12.034Z,6.60
2019-04-16T19:21:42.884Z,4.10
2019-04-16T19:24:13.454Z,3.67
2019-04-16T19:26:43.742Z,3.85
2019-04-16T19:29:14.835Z,3.98
2019-04-16T19:31:46.103Z,6.02
2019-04-16T19:34:16.384Z,4.12
2019-04-16T19:36:46.659Z,4.33
2019-04-16T19:39:17.078Z,3.12
2019-04-16T19:41:47.410Z,3.87
2019-04-16T19:44:17.691Z,3.77
2019-04-16T19:46:52.665Z,4.75
2019-04-16T19:49:20.101Z,4.17
2019-04-16T19:51:50.381Z,3.95
2019-04-16T19:54:20.928Z,3.67
2019-04-16T19:56:52.018Z,3.50
2019-04-16T19:59:22.603Z,3.83
2019-04-16T20:01:55.980Z,4.15
2019-04-16T20:04:24.876Z,4.92
2019-04-16T20:07:00.005Z,4.47
2019-04-16T20:09:27.162Z,3.62
2019-04-16T20:11:57.403Z,3.75
2019-04-16T20:14:27.685Z,3.86
2019-04-16T20:16:57.982Z,4.47
2019-04-16T20:19:28.468Z,2.90
2019-04-16T20:21:59.469Z,3.05
2019-04-16T20:24:29.736Z,3.55
2019-04-16T20:27:04.877Z,3.77
2019-04-16T20:29:32.059Z,5.97
2019-04-16T20:32:02.391Z,2.80
2019-04-16T20:34:32.667Z,4.67
2019-04-16T20:37:02.950Z,4.22
2019-04-16T20:39:33.250Z,3.67
2019-04-16T20:42:03.712Z,3.40
2019-04-16T20:44:34.316Z,4.92
2019-04-16T20:47:07.913Z,3.20
2019-04-16T20:49:36.968Z,3.45
2019-04-16T20:52:07.320Z,3.17
2019-04-16T20:54:44.029Z,4.72
2019-04-16T20:57:11.415Z,3.83
2019-04-16T20:59:41.960Z,3.00
2019-04-16T21:02:12.592Z,2.75
2019-04-16T21:04:44.337Z,2.95
2019-04-16T21:07:15.477Z,2.90
2019-04-16T21:09:45.864Z,3.56
2019-04-16T21:12:16.149Z,2.58
2019-04-16T21:14:46.429Z,3.15
2019-04-16T21:17:17.841Z,3.17
2019-04-16T21:19:48.181Z,2.55
2019-04-16T21:22:19.234Z,3.83
2019-04-16T21:24:49.576Z,3.47
2019-04-16T21:27:19.853Z,2.85
2019-04-16T21:29:50.133Z,3.15
2019-04-16T21:32:24.854Z,3.75
2019-04-16T21:35:06.184Z,2.43
2019-04-16T21:37:55.985Z,2.98
2019-04-16T21:40:26.221Z,3.00
2019-04-16T21:42:56.488Z,3.05
2019-04-16T21:45:26.769Z,2.98
2019-04-16T21:47:57.048Z,2.80
2019-04-16T21:50:27.329Z,2.60
2019-04-16T21:52:57.598Z,2.85
2019-04-16T21:55:27.879Z,4.97
2019-04-16T21:57:58.327Z,4.24
2019-04-16T22:00:40.137Z,2.42
2019-04-16T22:03:15.169Z,3.72
2019-04-16T22:05:48.141Z,3.75
2019-04-16T22:08:17.417Z,2.73
2019-04-16T22:10:47.698Z,2.77
2019-04-16T22:13:19.481Z,2.90
2019-04-16T22:15:50.370Z,2.83
2019-04-16T22:18:20.912Z,3.70
2019-04-16T22:20:51.193Z,3.40
2019-04-16T22:23:21.473Z,3.00
2019-04-16T22:25:51.749Z,2.60
2019-04-16T22:28:22.029Z,2.53
2019-04-16T22:30:52.361Z,3.37
2019-04-16T22:33:22.583Z,3.10
2019-04-16T22:35:54.199Z,4.22
2019-04-16T22:38:25.752Z,2.30
2019-04-16T22:40:58.014Z,2.87
2019-04-16T22:43:30.292Z,3.23
2019-04-16T22:46:02.386Z,2.90
2019-04-16T22:48:32.561Z,3.02
2019-04-16T22:51:02.841Z,2.98
2019-04-16T22:53:33.124Z,3.27
2019-04-16T22:56:03.397Z,3.05
2019-04-16T22:58:49.901Z,2.37
2019-04-16T23:01:22.231Z,2.70
2019-04-16T23:03:53.423Z,3.20
2019-04-16T23:06:24.670Z,2.62
2019-04-16T23:08:55.170Z,2.20
2019-04-16T23:11:25.453Z,2.67
2019-04-16T23:13:55.803Z,2.13
2019-04-16T23:16:26.096Z,2.15
2019-04-16T23:18:56.352Z,2.30
2019-04-16T23:21:26.636Z,1.98
2019-04-16T23:23:57.009Z,2.47
2019-04-16T23:26:32.141Z,1.73
2019-04-16T23:28:59.256Z,2.85
2019-04-16T23:31:29.531Z,1.85
2019-04-16T23:34:04.575Z,1.75
2019-04-16T23:36:31.784Z,3.27
2019-04-16T23:39:04.664Z,3.05
2019-04-16T23:41:34.108Z,1.82
2019-04-16T23:44:15.057Z,2.12
2019-04-16T23:47:02.288Z,2.00
2019-04-16T23:49:36.757Z,2.20
2019-04-16T23:52:20.802Z,2.26
2019-04-16T23:54:55.463Z,2.10
2019-04-16T23:57:43.724Z,1.75
